sensor_id;sensor_type;location;lat;lon;timestamp;P1;durP1;ratioP1;P2;durP2;ratioP2
38787;SDS011;24536;45.488;12.238;2023-10-31T00:01:50;4.72;;;1.13;;
38787;SDS011;24536;45.488;12.238;2023-10-31T00:04:16;12.98;;;1.40;;
38787;SDS011;24536;45.488;12.238;2023-10-31T00:06:42;2.78;;;1.00;;
38787;SDS011;24536;45.488;12.238;2023-10-31T00:09:08;1.98;;;0.70;;
38787;SDS011;24536;45.488;12.238;2023-10-31T00:11:35;2.05;;;0.60;;
38787;SDS011;24536;45.488;12.238;2023-10-31T00:14:01;2.40;;;0.60;;
38787;SDS011;24536;45.488;12.238;2023-10-31T00:16:27;10.57;;;1.50;;
38787;SDS011;24536;45.488;12.238;2023-10-31T00:18:53;2.85;;;0.80;;
38787;SDS011;24536;45.488;12.238;2023-10-31T00:21:19;4.15;;;1.90;;
38787;SDS011;24536;45.488;12.238;2023-10-31T00:23:45;4.13;;;1.00;;
38787;SDS011;24536;45.488;12.238;2023-10-31T00:26:12;5.00;;;1.08;;
38787;SDS011;24536;45.488;12.238;2023-10-31T00:28:38;7.63;;;1.60;;
38787;SDS011;24536;45.488;12.238;2023-10-31T00:31:03;7.22;;;1.35;;
38787;SDS011;24536;45.488;12.238;2023-10-31T00:33:30;5.78;;;1.40;;
38787;SDS011;24536;45.488;12.238;2023-10-31T00:35:55;3.85;;;1.13;;
38787;SDS011;24536;45.488;12.238;2023-10-31T00:38:21;5.70;;;1.35;;
38787;SDS011;24536;45.488;12.238;2023-10-31T00:40:47;9.00;;;2.33;;
38787;SDS011;24536;45.488;12.238;2023-10-31T00:43:12;2.97;;;1.02;;
38787;SDS011;24536;45.488;12.238;2023-10-31T00:45:38;4.38;;;0.98;;
38787;SDS011;24536;45.488;12.238;2023-10-31T00:48:04;5.32;;;1.88;;
38787;SDS011;24536;45.488;12.238;2023-10-31T00:50:30;3.10;;;1.17;;
38787;SDS011;24536;45.488;12.238;2023-10-31T00:52:55;5.43;;;1.05;;
38787;SDS011;24536;45.488;12.238;2023-10-31T00:55:21;5.15;;;1.17;;
38787;SDS011;24536;45.488;12.238;2023-10-31T00:57:47;4.60;;;0.85;;
38787;SDS011;24536;45.488;12.238;2023-10-31T01:00:12;9.60;;;1.20;;
38787;SDS011;24536;45.488;12.238;2023-10-31T01:02:38;11.55;;;1.23;;
38787;SDS011;24536;45.488;12.238;2023-10-31T01:05:04;3.63;;;0.90;;
38787;SDS011;24536;45.488;12.238;2023-10-31T01:07:30;3.72;;;0.90;;
38787;SDS011;24536;45.488;12.238;2023-10-31T01:09:56;3.70;;;0.90;;
38787;SDS011;24536;45.488;12.238;2023-10-31T01:12:22;2.63;;;0.70;;
38787;SDS011;24536;45.488;12.238;2023-10-31T01:14:47;5.80;;;1.30;;
38787;SDS011;24536;45.488;12.238;2023-10-31T01:17:13;3.90;;;0.90;;
38787;SDS011;24536;45.488;12.238;2023-10-31T01:19:39;5.78;;;1.23;;
38787;SDS011;24536;45.488;12.238;2023-10-31T01:22:04;4.88;;;1.38;;
38787;SDS011;24536;45.488;12.238;2023-10-31T01:24:32;6.28;;;1.33;;
38787;SDS011;24536;45.488;12.238;2023-10-31T01:26:58;2.70;;;0.68;;
38787;SDS011;24536;45.488;12.238;2023-10-31T01:29:23;7.22;;;1.25;;
38787;SDS011;24536;45.488;12.238;2023-10-31T01:31:49;9.88;;;1.38;;
38787;SDS011;24536;45.488;12.238;2023-10-31T01:34:15;7.05;;;1.23;;
38787;SDS011;24536;45.488;12.238;2023-10-31T01:36:40;8.18;;;1.33;;
38787;SDS011;24536;45.488;12.238;2023-10-31T01:39:06;3.92;;;0.95;;
38787;SDS011;24536;45.488;12.238;2023-10-31T01:41:33;8.38;;;1.45;;
38787;SDS011;24536;45.488;12.238;2023-10-31T01:43:58;3.80;;;1.20;;
38787;SDS011;24536;45.488;12.238;2023-10-31T01:46:24;3.80;;;1.02;;
38787;SDS011;24536;45.488;12.238;2023-10-31T01:48:50;15.50;;;2.42;;
38787;SDS011;24536;45.488;12.238;2023-10-31T01:51:15;5.30;;;1.10;;
38787;SDS011;24536;45.488;12.238;2023-10-31T01:53:42;4.90;;;2.08;;
38787;SDS011;24536;45.488;12.238;2023-10-31T01:56:07;4.07;;;1.38;;
38787;SDS011;24536;45.488;12.238;2023-10-31T01:58:37;5.22;;;1.30;;
38787;SDS011;24536;45.488;12.238;2023-10-31T02:01:03;3.75;;;1.25;;
38787;SDS011;24536;45.488;12.238;2023-10-31T02:03:30;10.15;;;1.50;;
38787;SDS011;24536;45.488;12.238;2023-10-31T02:05:56;2.58;;;1.10;;
38787;SDS011;24536;45.488;12.238;2023-10-31T02:08:23;5.13;;;1.40;;
38787;SDS011;24536;45.488;12.238;2023-10-31T02:10:50;6.32;;;1.25;;
38787;SDS011;24536;45.488;12.238;2023-10-31T02:13:16;3.35;;;1.00;;
38787;SDS011;24536;45.488;12.238;2023-10-31T02:15:43;5.53;;;1.02;;
38787;SDS011;24536;45.488;12.238;2023-10-31T02:18:10;3.92;;;0.90;;
38787;SDS011;24536;45.488;12.238;2023-10-31T02:20:36;2.58;;;0.82;;
38787;SDS011;24536;45.488;12.238;2023-10-31T02:23:02;3.55;;;0.82;;
38787;SDS011;24536;45.488;12.238;2023-10-31T02:25:29;4.03;;;0.98;;
38787;SDS011;24536;45.488;12.238;2023-10-31T02:27:55;7.22;;;1.08;;
38787;SDS011;24536;45.488;12.238;2023-10-31T02:30:21;6.88;;;0.98;;
38787;SDS011;24536;45.488;12.238;2023-10-31T02:32:46;3.17;;;0.80;;
38787;SDS011;24536;45.488;12.238;2023-10-31T02:35:12;3.17;;;1.00;;
38787;SDS011;24536;45.488;12.238;2023-10-31T02:37:39;3.60;;;1.13;;
38787;SDS011;24536;45.488;12.238;2023-10-31T02:40:05;1.65;;;0.65;;
38787;SDS011;24536;45.488;12.238;2023-10-31T02:42:31;4.20;;;1.25;;
38787;SDS011;24536;45.488;12.238;2023-10-31T02:44:57;3.80;;;1.38;;
38787;SDS011;24536;45.488;12.238;2023-10-31T02:47:22;3.03;;;0.88;;
38787;SDS011;24536;45.488;12.238;2023-10-31T02:49:48;2.10;;;0.90;;
38787;SDS011;24536;45.488;12.238;2023-10-31T02:52:14;1.85;;;0.60;;
38787;SDS011;24536;45.488;12.238;2023-10-31T02:54:39;5.75;;;1.10;;
38787;SDS011;24536;45.488;12.238;2023-10-31T02:57:05;5.72;;;1.15;;
38787;SDS011;24536;45.488;12.238;2023-10-31T02:59:31;2.55;;;0.90;;
38787;SDS011;24536;45.488;12.238;2023-10-31T03:01:57;1.80;;;0.60;;
38787;SDS011;24536;45.488;12.238;2023-10-31T03:04:23;5.70;;;1.20;;
38787;SDS011;24536;45.488;12.238;2023-10-31T03:06:49;3.42;;;0.88;;
38787;SDS011;24536;45.488;12.238;2023-10-31T03:09:14;5.25;;;1.40;;
38787;SDS011;24536;45.488;12.238;2023-10-31T03:11:40;2.20;;;0.95;;
38787;SDS011;24536;45.488;12.238;2023-10-31T03:14:06;4.35;;;1.25;;
38787;SDS011;24536;45.488;12.238;2023-10-31T03:16:32;4.10;;;1.10;;
38787;SDS011;24536;45.488;12.238;2023-10-31T03:18:57;5.55;;;1.63;;
38787;SDS011;24536;45.488;12.238;2023-10-31T03:21:23;4.07;;;0.93;;
38787;SDS011;24536;45.488;12.238;2023-10-31T03:23:49;3.17;;;0.90;;
38787;SDS011;24536;45.488;12.238;2023-10-31T03:26:19;4.22;;;0.82;;
38787;SDS011;24536;45.488;12.238;2023-10-31T03:28:45;3.30;;;1.23;;
38787;SDS011;24536;45.488;12.238;2023-10-31T03:31:14;2.08;;;0.73;;
38787;SDS011;24536;45.488;12.238;2023-10-31T03:33:40;4.47;;;1.23;;
38787;SDS011;24536;45.488;12.238;2023-10-31T03:36:07;1.73;;;0.70;;
38787;SDS011;24536;45.488;12.238;2023-10-31T03:38:34;8.13;;;1.27;;
38787;SDS011;24536;45.488;12.238;2023-10-31T03:41:00;1.95;;;0.85;;
38787;SDS011;24536;45.488;12.238;2023-10-31T03:43:26;3.47;;;0.82;;
38787;SDS011;24536;45.488;12.238;2023-10-31T03:45:54;1.90;;;0.90;;
38787;SDS011;24536;45.488;12.238;2023-10-31T03:48:20;3.50;;;1.10;;
38787;SDS011;24536;45.488;12.238;2023-10-31T03:50:46;3.67;;;0.80;;
38787;SDS011;24536;45.488;12.238;2023-10-31T03:53:12;2.95;;;0.95;;
38787;SDS011;24536;45.488;12.238;2023-10-31T03:55:38;2.97;;;0.95;;
38787;SDS011;24536;45.488;12.238;2023-10-31T03:58:04;4.07;;;0.88;;
38787;SDS011;24536;45.488;12.238;2023-10-31T04:00:30;2.30;;;0.80;;
38787;SDS011;24536;45.488;12.238;2023-10-31T04:02:56;3.35;;;0.90;;
38787;SDS011;24536;45.488;12.238;2023-10-31T04:05:22;2.72;;;1.10;;
38787;SDS011;24536;45.488;12.238;2023-10-31T04:07:48;3.03;;;0.98;;
38787;SDS011;24536;45.488;12.238;2023-10-31T04:10:14;2.25;;;0.90;;
38787;SDS011;24536;45.488;12.238;2023-10-31T04:12:40;4.13;;;0.90;;
38787;SDS011;24536;45.488;12.238;2023-10-31T04:15:07;3.35;;;1.52;;
38787;SDS011;24536;45.488;12.238;2023-10-31T04:17:33;3.05;;;0.80;;
38787;SDS011;24536;45.488;12.238;2023-10-31T04:19:59;6.32;;;1.10;;
38787;SDS011;24536;45.488;12.238;2023-10-31T04:22:25;4.65;;;1.65;;
38787;SDS011;24536;45.488;12.238;2023-10-31T04:24:51;3.97;;;0.73;;
38787;SDS011;24536;45.488;12.238;2023-10-31T04:27:17;2.30;;;0.80;;
38787;SDS011;24536;45.488;12.238;2023-10-31T04:29:43;3.60;;;0.77;;
38787;SDS011;24536;45.488;12.238;2023-10-31T04:32:09;3.83;;;1.02;;
38787;SDS011;24536;45.488;12.238;2023-10-31T04:34:35;4.15;;;1.27;;
38787;SDS011;24536;45.488;12.238;2023-10-31T04:37:00;4.53;;;1.33;;
38787;SDS011;24536;45.488;12.238;2023-10-31T04:39:26;3.00;;;1.05;;
38787;SDS011;24536;45.488;12.238;2023-10-31T04:41:52;3.40;;;1.10;;
38787;SDS011;24536;45.488;12.238;2023-10-31T04:44:18;3.78;;;1.23;;
38787;SDS011;24536;45.488;12.238;2023-10-31T04:46:43;2.70;;;1.10;;
38787;SDS011;24536;45.488;12.238;2023-10-31T04:49:09;3.03;;;1.20;;
38787;SDS011;24536;45.488;12.238;2023-10-31T04:51:35;2.58;;;1.25;;
38787;SDS011;24536;45.488;12.238;2023-10-31T04:54:01;2.80;;;0.52;;
38787;SDS011;24536;45.488;12.238;2023-10-31T04:56:27;5.53;;;1.00;;
38787;SDS011;24536;45.488;12.238;2023-10-31T04:58:53;4.00;;;1.02;;
38787;SDS011;24536;45.488;12.238;2023-10-31T05:01:19;5.88;;;1.10;;
38787;SDS011;24536;45.488;12.238;2023-10-31T05:03:44;2.60;;;1.05;;
38787;SDS011;24536;45.488;12.238;2023-10-31T05:06:10;2.55;;;1.13;;
38787;SDS011;24536;45.488;12.238;2023-10-31T05:08:36;2.70;;;1.17;;
38787;SDS011;24536;45.488;12.238;2023-10-31T05:11:02;1.17;;;0.80;;
38787;SDS011;24536;45.488;12.238;2023-10-31T05:13:27;1.73;;;0.70;;
38787;SDS011;24536;45.488;12.238;2023-10-31T05:15:53;4.65;;;1.10;;
38787;SDS011;24536;45.488;12.238;2023-10-31T05:18:19;4.13;;;1.08;;
38787;SDS011;24536;45.488;12.238;2023-10-31T05:20:45;4.35;;;1.50;;
38787;SDS011;24536;45.488;12.238;2023-10-31T05:23:11;3.10;;;1.60;;
38787;SDS011;24536;45.488;12.238;2023-10-31T05:25:37;5.20;;;1.77;;
38787;SDS011;24536;45.488;12.238;2023-10-31T05:28:03;5.10;;;1.55;;
38787;SDS011;24536;45.488;12.238;2023-10-31T05:30:29;6.55;;;1.70;;
38787;SDS011;24536;45.488;12.238;2023-10-31T05:32:55;4.68;;;1.50;;
38787;SDS011;24536;45.488;12.238;2023-10-31T05:35:21;8.55;;;1.65;;
38787;SDS011;24536;45.488;12.238;2023-10-31T05:37:47;3.92;;;1.70;;
38787;SDS011;24536;45.488;12.238;2023-10-31T05:40:14;3.28;;;1.33;;
38787;SDS011;24536;45.488;12.238;2023-10-31T05:42:41;4.35;;;1.08;;
38787;SDS011;24536;45.488;12.238;2023-10-31T05:45:07;2.42;;;1.30;;
38787;SDS011;24536;45.488;12.238;2023-10-31T05:47:33;4.22;;;1.35;;
38787;SDS011;24536;45.488;12.238;2023-10-31T05:49:58;4.88;;;1.40;;
38787;SDS011;24536;45.488;12.238;2023-10-31T05:52:28;5.45;;;1.55;;
38787;SDS011;24536;45.488;12.238;2023-10-31T05:54:54;4.10;;;1.55;;
38787;SDS011;24536;45.488;12.238;2023-10-31T05:57:21;4.60;;;1.70;;
38787;SDS011;24536;45.488;12.238;2023-10-31T05:59:46;9.32;;;1.85;;
38787;SDS011;24536;45.488;12.238;2023-10-31T06:02:13;7.28;;;1.63;;
38787;SDS011;24536;45.488;12.238;2023-10-31T06:04:39;5.63;;;1.30;;
38787;SDS011;24536;45.488;12.238;2023-10-31T06:07:04;6.35;;;1.35;;
38787;SDS011;24536;45.488;12.238;2023-10-31T06:09:31;9.55;;;1.63;;
38787;SDS011;24536;45.488;12.238;2023-10-31T06:11:58;8.07;;;1.58;;
38787;SDS011;24536;45.488;12.238;2023-10-31T06:14:30;6.55;;;1.58;;
38787;SDS011;24536;45.488;12.238;2023-10-31T06:16:57;3.58;;;1.48;;
38787;SDS011;24536;45.488;12.238;2023-10-31T06:19:24;3.17;;;1.00;;
38787;SDS011;24536;45.488;12.238;2023-10-31T06:21:50;2.65;;;0.90;;
38787;SDS011;24536;45.488;12.238;2023-10-31T06:24:15;3.00;;;1.02;;
38787;SDS011;24536;45.488;12.238;2023-10-31T06:26:41;4.22;;;0.88;;
38787;SDS011;24536;45.488;12.238;2023-10-31T06:29:07;1.90;;;0.70;;
38787;SDS011;24536;45.488;12.238;2023-10-31T06:31:33;2.92;;;0.70;;
38787;SDS011;24536;45.488;12.238;2023-10-31T06:33:58;0.73;;;0.50;;
38787;SDS011;24536;45.488;12.238;2023-10-31T06:36:24;3.80;;;0.80;;
38787;SDS011;24536;45.488;12.238;2023-10-31T06:38:50;4.78;;;1.30;;
38787;SDS011;24536;45.488;12.238;2023-10-31T06:41:15;8.30;;;1.35;;
38787;SDS011;24536;45.488;12.238;2023-10-31T06:43:41;2.85;;;1.13;;
38787;SDS011;24536;45.488;12.238;2023-10-31T06:46:07;4.03;;;0.77;;
38787;SDS011;24536;45.488;12.238;2023-10-31T06:48:33;5.07;;;0.90;;
38787;SDS011;24536;45.488;12.238;2023-10-31T06:50:59;3.28;;;0.80;;
38787;SDS011;24536;45.488;12.238;2023-10-31T06:53:24;1.65;;;0.95;;
38787;SDS011;24536;45.488;12.238;2023-10-31T06:55:50;3.03;;;1.10;;
38787;SDS011;24536;45.488;12.238;2023-10-31T06:58:16;2.38;;;0.60;;
38787;SDS011;24536;45.488;12.238;2023-10-31T07:00:41;2.33;;;0.70;;
38787;SDS011;24536;45.488;12.238;2023-10-31T07:03:07;2.47;;;0.65;;
38787;SDS011;24536;45.488;12.238;2023-10-31T07:05:36;3.53;;;0.85;;
38787;SDS011;24536;45.488;12.238;2023-10-31T07:08:02;0.70;;;0.40;;
38787;SDS011;24536;45.488;12.238;2023-10-31T07:10:28;3.38;;;1.08;;
38787;SDS011;24536;45.488;12.238;2023-10-31T07:12:54;1.65;;;0.60;;
38787;SDS011;24536;45.488;12.238;2023-10-31T07:15:20;3.08;;;0.60;;
38787;SDS011;24536;45.488;12.238;2023-10-31T07:17:46;1.08;;;0.50;;
38787;SDS011;24536;45.488;12.238;2023-10-31T07:20:13;1.67;;;0.63;;
38787;SDS011;24536;45.488;12.238;2023-10-31T07:22:39;0.98;;;0.50;;
38787;SDS011;24536;45.488;12.238;2023-10-31T07:25:05;1.45;;;0.70;;
38787;SDS011;24536;45.488;12.238;2023-10-31T07:27:32;1.15;;;0.55;;
38787;SDS011;24536;45.488;12.238;2023-10-31T07:29:57;1.65;;;0.50;;
38787;SDS011;24536;45.488;12.238;2023-10-31T07:32:23;2.60;;;0.70;;
38787;SDS011;24536;45.488;12.238;2023-10-31T07:34:49;1.77;;;0.50;;
38787;SDS011;24536;45.488;12.238;2023-10-31T07:37:15;2.25;;;0.63;;
38787;SDS011;24536;45.488;12.238;2023-10-31T07:39:41;2.90;;;0.77;;
38787;SDS011;24536;45.488;12.238;2023-10-31T07:42:07;2.25;;;0.65;;
38787;SDS011;24536;45.488;12.238;2023-10-31T07:44:33;1.73;;;0.47;;
38787;SDS011;24536;45.488;12.238;2023-10-31T07:46:59;0.70;;;0.47;;
38787;SDS011;24536;45.488;12.238;2023-10-31T07:49:24;0.88;;;0.52;;
38787;SDS011;24536;45.488;12.238;2023-10-31T07:51:50;2.33;;;0.60;;
38787;SDS011;24536;45.488;12.238;2023-10-31T07:54:16;2.13;;;1.20;;
38787;SDS011;24536;45.488;12.238;2023-10-31T07:56:43;3.00;;;0.57;;
38787;SDS011;24536;45.488;12.238;2023-10-31T07:59:11;1.95;;;0.55;;
38787;SDS011;24536;45.488;12.238;2023-10-31T08:01:37;2.30;;;0.43;;
38787;SDS011;24536;45.488;12.238;2023-10-31T08:04:03;2.40;;;0.75;;
38787;SDS011;24536;45.488;12.238;2023-10-31T08:06:28;3.13;;;0.63;;
38787;SDS011;24536;45.488;12.238;2023-10-31T08:08:54;3.38;;;0.90;;
38787;SDS011;24536;45.488;12.238;2023-10-31T08:11:20;3.70;;;0.75;;
38787;SDS011;24536;45.488;12.238;2023-10-31T08:13:45;1.42;;;0.75;;
38787;SDS011;24536;45.488;12.238;2023-10-31T08:16:16;4.90;;;0.77;;
38787;SDS011;24536;45.488;12.238;2023-10-31T08:18:43;2.05;;;0.60;;
38787;SDS011;24536;45.488;12.238;2023-10-31T08:21:09;3.22;;;0.60;;
38787;SDS011;24536;45.488;12.238;2023-10-31T08:23:36;2.47;;;0.73;;
38787;SDS011;24536;45.488;12.238;2023-10-31T08:26:02;2.70;;;0.90;;
38787;SDS011;24536;45.488;12.238;2023-10-31T08:28:28;0.57;;;0.40;;
38787;SDS011;24536;45.488;12.238;2023-10-31T08:30:54;1.45;;;0.65;;
38787;SDS011;24536;45.488;12.238;2023-10-31T08:33:19;0.98;;;0.60;;
38787;SDS011;24536;45.488;12.238;2023-10-31T08:35:45;3.92;;;0.60;;
38787;SDS011;24536;45.488;12.238;2023-10-31T08:38:12;4.07;;;1.17;;
38787;SDS011;24536;45.488;12.238;2023-10-31T08:40:38;1.00;;;0.50;;
38787;SDS011;24536;45.488;12.238;2023-10-31T08:43:04;2.38;;;0.65;;
38787;SDS011;24536;45.488;12.238;2023-10-31T08:45:31;1.20;;;0.50;;
38787;SDS011;24536;45.488;12.238;2023-10-31T08:47:58;2.33;;;0.70;;
38787;SDS011;24536;45.488;12.238;2023-10-31T08:50:24;3.88;;;1.00;;
38787;SDS011;24536;45.488;12.238;2023-10-31T08:52:50;1.65;;;0.47;;
38787;SDS011;24536;45.488;12.238;2023-10-31T08:55:16;1.95;;;0.60;;
38787;SDS011;24536;45.488;12.238;2023-10-31T08:57:42;1.58;;;0.60;;
38787;SDS011;24536;45.488;12.238;2023-10-31T09:00:08;2.95;;;0.63;;
38787;SDS011;24536;45.488;12.238;2023-10-31T09:02:35;5.65;;;0.70;;
38787;SDS011;24536;45.488;12.238;2023-10-31T09:05:01;4.43;;;0.70;;
38787;SDS011;24536;45.488;12.238;2023-10-31T09:07:27;5.80;;;1.45;;
38787;SDS011;24536;45.488;12.238;2023-10-31T09:09:52;8.60;;;0.70;;
38787;SDS011;24536;45.488;12.238;2023-10-31T09:12:18;3.05;;;0.60;;
38787;SDS011;24536;45.488;12.238;2023-10-31T09:14:44;13.48;;;0.70;;
38787;SDS011;24536;45.488;12.238;2023-10-31T09:17:15;2.83;;;0.30;;
38787;SDS011;24536;45.488;12.238;2023-10-31T09:19:40;3.13;;;0.55;;
38787;SDS011;24536;45.488;12.238;2023-10-31T09:22:06;7.93;;;0.80;;
38787;SDS011;24536;45.488;12.238;2023-10-31T09:24:33;2.05;;;0.50;;
38787;SDS011;24536;45.488;12.238;2023-10-31T09:26:58;1.27;;;0.30;;
38787;SDS011;24536;45.488;12.238;2023-10-31T09:29:24;7.15;;;0.90;;
38787;SDS011;24536;45.488;12.238;2023-10-31T09:31:50;1.23;;;0.70;;
38787;SDS011;24536;45.488;12.238;2023-10-31T09:34:18;1.63;;;0.43;;
38787;SDS011;24536;45.488;12.238;2023-10-31T09:36:44;1.65;;;0.50;;
38787;SDS011;24536;45.488;12.238;2023-10-31T09:39:10;1.60;;;0.30;;
38787;SDS011;24536;45.488;12.238;2023-10-31T09:41:35;6.60;;;0.82;;
38787;SDS011;24536;45.488;12.238;2023-10-31T09:44:02;1.40;;;0.30;;
38787;SDS011;24536;45.488;12.238;2023-10-31T09:46:30;0.30;;;0.20;;
38787;SDS011;24536;45.488;12.238;2023-10-31T09:48:56;1.25;;;0.20;;
38787;SDS011;24536;45.488;12.238;2023-10-31T09:51:22;0.57;;;0.20;;
38787;SDS011;24536;45.488;12.238;2023-10-31T09:53:48;0.82;;;0.20;;
38787;SDS011;24536;45.488;12.238;2023-10-31T09:56:16;1.60;;;0.13;;
38787;SDS011;24536;45.488;12.238;2023-10-31T09:58:42;1.88;;;0.10;;
38787;SDS011;24536;45.488;12.238;2023-10-31T10:01:08;3.35;;;0.30;;
38787;SDS011;24536;45.488;12.238;2023-10-31T10:03:34;0.55;;;0.13;;
38787;SDS011;24536;45.488;12.238;2023-10-31T10:05:59;0.85;;;0.28;;
38787;SDS011;24536;45.488;12.238;2023-10-31T10:08:28;5.50;;;0.28;;
38787;SDS011;24536;45.488;12.238;2023-10-31T10:10:53;1.00;;;0.20;;
38787;SDS011;24536;45.488;12.238;2023-10-31T10:13:20;1.50;;;0.20;;
38787;SDS011;24536;45.488;12.238;2023-10-31T10:15:46;2.08;;;0.65;;
38787;SDS011;24536;45.488;12.238;2023-10-31T10:18:28;3.28;;;0.15;;
38787;SDS011;24536;45.488;12.238;2023-10-31T10:21:04;0.30;;;0.30;;
38787;SDS011;24536;45.488;12.238;2023-10-31T10:23:31;1.17;;;0.10;;
38787;SDS011;24536;45.488;12.238;2023-10-31T10:25:57;0.32;;;0.10;;
38787;SDS011;24536;45.488;12.238;2023-10-31T10:28:24;0.70;;;0.10;;
38787;SDS011;24536;45.488;12.238;2023-10-31T10:30:50;0.20;;;0.20;;
38787;SDS011;24536;45.488;12.238;2023-10-31T10:33:17;0.40;;;0.10;;
38787;SDS011;24536;45.488;12.238;2023-10-31T10:35:43;0.40;;;0.15;;
38787;SDS011;24536;45.488;12.238;2023-10-31T10:38:16;0.50;;;0.10;;
38787;SDS011;24536;45.488;12.238;2023-10-31T10:40:44;2.55;;;0.15;;
38787;SDS011;24536;45.488;12.238;2023-10-31T10:43:20;0.55;;;0.20;;
38787;SDS011;24536;45.488;12.238;2023-10-31T10:45:55;0.20;;;0.17;;
38787;SDS011;24536;45.488;12.238;2023-10-31T10:48:22;1.88;;;0.32;;
38787;SDS011;24536;45.488;12.238;2023-10-31T10:51:05;2.05;;;0.17;;
38787;SDS011;24536;45.488;12.238;2023-10-31T10:53:51;0.85;;;0.13;;
38787;SDS011;24536;45.488;12.238;2023-10-31T10:56:41;0.60;;;0.20;;
38787;SDS011;24536;45.488;12.238;2023-10-31T10:59:15;0.30;;;0.10;;
38787;SDS011;24536;45.488;12.238;2023-10-31T11:01:45;1.08;;;0.20;;
38787;SDS011;24536;45.488;12.238;2023-10-31T11:04:12;1.67;;;0.20;;
38787;SDS011;24536;45.488;12.238;2023-10-31T11:06:38;0.55;;;0.13;;
38787;SDS011;24536;45.488;12.238;2023-10-31T11:09:06;0.70;;;0.13;;
38787;SDS011;24536;45.488;12.238;2023-10-31T11:11:36;0.38;;;0.17;;
38787;SDS011;24536;45.488;12.238;2023-10-31T11:14:03;1.17;;;0.30;;
38787;SDS011;24536;45.488;12.238;2023-10-31T11:16:30;0.40;;;0.20;;
38787;SDS011;24536;45.488;12.238;2023-10-31T11:19:06;0.30;;;0.20;;
38787;SDS011;24536;45.488;12.238;2023-10-31T11:21:32;0.10;;;0.10;;
38787;SDS011;24536;45.488;12.238;2023-10-31T11:23:59;3.22;;;0.20;;
38787;SDS011;24536;45.488;12.238;2023-10-31T11:26:27;2.05;;;0.30;;
38787;SDS011;24536;45.488;12.238;2023-10-31T11:29:04;1.90;;;0.30;;
38787;SDS011;24536;45.488;12.238;2023-10-31T11:31:31;0.77;;;0.20;;
38787;SDS011;24536;45.488;12.238;2023-10-31T11:34:02;4.03;;;0.30;;
38787;SDS011;24536;45.488;12.238;2023-10-31T11:36:31;4.15;;;0.30;;
38787;SDS011;24536;45.488;12.238;2023-10-31T11:41:40;1.73;;;0.20;;
38787;SDS011;24536;45.488;12.238;2023-10-31T11:44:11;3.17;;;0.50;;
38787;SDS011;24536;45.488;12.238;2023-10-31T11:46:37;2.15;;;0.40;;
38787;SDS011;24536;45.488;12.238;2023-10-31T11:49:02;2.70;;;0.30;;
38787;SDS011;24536;45.488;12.238;2023-10-31T11:51:30;0.40;;;0.25;;
38787;SDS011;24536;45.488;12.238;2023-10-31T11:53:56;0.82;;;0.20;;
38787;SDS011;24536;45.488;12.238;2023-10-31T11:56:22;5.78;;;0.30;;
38787;SDS011;24536;45.488;12.238;2023-10-31T11:58:55;1.52;;;0.47;;
38787;SDS011;24536;45.488;12.238;2023-10-31T12:01:21;0.32;;;0.32;;
38787;SDS011;24536;45.488;12.238;2023-10-31T12:03:47;2.85;;;0.50;;
38787;SDS011;24536;45.488;12.238;2023-10-31T12:06:13;2.35;;;0.50;;
38787;SDS011;24536;45.488;12.238;2023-10-31T12:08:41;1.02;;;0.30;;
38787;SDS011;24536;45.488;12.238;2023-10-31T12:13:37;0.60;;;0.20;;
38787;SDS011;24536;45.488;12.238;2023-10-31T12:16:04;5.40;;;0.47;;
38787;SDS011;24536;45.488;12.238;2023-10-31T12:18:32;0.35;;;0.20;;
38787;SDS011;24536;45.488;12.238;2023-10-31T12:21:04;0.30;;;0.20;;
38787;SDS011;24536;45.488;12.238;2023-10-31T12:23:32;1.33;;;0.45;;
38787;SDS011;24536;45.488;12.238;2023-10-31T12:25:58;2.33;;;0.47;;
38787;SDS011;24536;45.488;12.238;2023-10-31T12:28:24;0.55;;;0.30;;
38787;SDS011;24536;45.488;12.238;2023-10-31T12:30:52;0.63;;;0.40;;
38787;SDS011;24536;45.488;12.238;2023-10-31T12:33:24;3.92;;;0.88;;
38787;SDS011;24536;45.488;12.238;2023-10-31T12:36:00;0.50;;;0.20;;
38787;SDS011;24536;45.488;12.238;2023-10-31T12:38:27;2.28;;;0.40;;
38787;SDS011;24536;45.488;12.238;2023-10-31T12:40:53;1.60;;;0.70;;
38787;SDS011;24536;45.488;12.238;2023-10-31T12:43:21;2.35;;;0.52;;
38787;SDS011;24536;45.488;12.238;2023-10-31T12:45:47;2.30;;;0.50;;
38787;SDS011;24536;45.488;12.238;2023-10-31T12:48:13;1.48;;;0.35;;
38787;SDS011;24536;45.488;12.238;2023-10-31T12:50:38;1.25;;;0.47;;
38787;SDS011;24536;45.488;12.238;2023-10-31T12:53:08;0.45;;;0.30;;
38787;SDS011;24536;45.488;12.238;2023-10-31T12:55:40;0.73;;;0.50;;
38787;SDS011;24536;45.488;12.238;2023-10-31T12:58:07;3.45;;;0.40;;
38787;SDS011;24536;45.488;12.238;2023-10-31T13:00:39;1.23;;;0.45;;
38787;SDS011;24536;45.488;12.238;2023-10-31T13:03:07;1.02;;;0.35;;
38787;SDS011;24536;45.488;12.238;2023-10-31T13:05:34;0.85;;;0.35;;
38787;SDS011;24536;45.488;12.238;2023-10-31T13:08:08;1.58;;;0.50;;
38787;SDS011;24536;45.488;12.238;2023-10-31T13:10:39;2.67;;;0.50;;
38787;SDS011;24536;45.488;12.238;2023-10-31T13:13:05;1.65;;;0.60;;
38787;SDS011;24536;45.488;12.238;2023-10-31T13:15:30;0.85;;;0.30;;
38787;SDS011;24536;45.488;12.238;2023-10-31T13:17:56;1.25;;;0.45;;
38787;SDS011;24536;45.488;12.238;2023-10-31T13:20:22;1.58;;;0.43;;
38787;SDS011;24536;45.488;12.238;2023-10-31T13:22:48;0.30;;;0.20;;
38787;SDS011;24536;45.488;12.238;2023-10-31T13:25:14;0.30;;;0.20;;
38787;SDS011;24536;45.488;12.238;2023-10-31T13:27:41;0.40;;;0.35;;
38787;SDS011;24536;45.488;12.238;2023-10-31T13:30:08;0.93;;;0.30;;
38787;SDS011;24536;45.488;12.238;2023-10-31T13:32:42;0.47;;;0.20;;
38787;SDS011;24536;45.488;12.238;2023-10-31T13:35:08;0.47;;;0.20;;
38787;SDS011;24536;45.488;12.238;2023-10-31T13:37:35;1.23;;;0.30;;
38787;SDS011;24536;45.488;12.238;2023-10-31T13:40:02;0.10;;;0.10;;
38787;SDS011;24536;45.488;12.238;2023-10-31T13:42:29;2.78;;;0.63;;
38787;SDS011;24536;45.488;12.238;2023-10-31T13:44:54;0.28;;;0.20;;
38787;SDS011;24536;45.488;12.238;2023-10-31T13:47:20;1.08;;;0.40;;
38787;SDS011;24536;45.488;12.238;2023-10-31T13:49:46;11.88;;;0.90;;
38787;SDS011;24536;45.488;12.238;2023-10-31T13:52:12;2.13;;;0.52;;
38787;SDS011;24536;45.488;12.238;2023-10-31T13:54:37;2.88;;;0.20;;
38787;SDS011;24536;45.488;12.238;2023-10-31T13:57:03;1.75;;;0.28;;
38787;SDS011;24536;45.488;12.238;2023-10-31T13:59:29;0.20;;;0.13;;
38787;SDS011;24536;45.488;12.238;2023-10-31T14:01:55;2.72;;;0.30;;
38787;SDS011;24536;45.488;12.238;2023-10-31T14:04:20;2.03;;;0.25;;
38787;SDS011;24536;45.488;12.238;2023-10-31T14:06:49;0.10;;;0.10;;
38787;SDS011;24536;45.488;12.238;2023-10-31T14:09:15;1.85;;;0.30;;
38787;SDS011;24536;45.488;12.238;2023-10-31T14:11:41;0.40;;;0.10;;
38787;SDS011;24536;45.488;12.238;2023-10-31T14:14:07;0.63;;;0.20;;
38787;SDS011;24536;45.488;12.238;2023-10-31T14:16:38;0.13;;;0.10;;
38787;SDS011;24536;45.488;12.238;2023-10-31T14:19:04;0.10;;;0.10;;
38787;SDS011;24536;45.488;12.238;2023-10-31T14:21:32;0.40;;;0.30;;
38787;SDS011;24536;45.488;12.238;2023-10-31T14:23:58;0.40;;;0.15;;
38787;SDS011;24536;45.488;12.238;2023-10-31T14:26:26;0.22;;;0.20;;
38787;SDS011;24536;45.488;12.238;2023-10-31T14:28:53;0.20;;;0.10;;
38787;SDS011;24536;45.488;12.238;2023-10-31T14:31:18;0.20;;;0.20;;
38787;SDS011;24536;45.488;12.238;2023-10-31T14:33:46;1.02;;;0.20;;
38787;SDS011;24536;45.488;12.238;2023-10-31T14:36:12;2.72;;;0.28;;